Time;durP1;ratioP1;P1;durP2;ratioP2;P2;SDS_P1;SDS_P2;PMS_P1;PMS_P2;Temp;Humidity;BMP_temperature;BMP_pressure;BME280_temperature;BME280_humidity;BME280_pressure;Samples;Min_cycle;Max_cycle;Signal;HPM_P1;HPM_P2
2023/03/12 00:01:11;;;;;;;7.13;3.63;;;-1.30;99.90;;;;;;5113642;28;20100;-64
2023/03/12 00:03:39;;;;;;;7.22;3.92;;;-1.30;99.90;;;;;;5113670;28;20052;-63
2023/03/12 00:06:07;;;;;;;6.13;3.95;;;-1.10;99.90;;;;;;5114422;28;20039;-64
2023/03/12 00:08:33;;;;;;;7.93;4.00;;;-1.30;99.90;;;;;;5111355;28;20071;-64
2023/03/12 00:11:00;;;;;;;12.70;3.92;;;-1.30;99.90;;;;;;5113868;28;20406;-64
2023/03/12 00:13:29;;;;;;;9.73;3.85;;;-1.30;99.90;;;;;;5113123;28;20096;-64
2023/03/12 00:15:55;;;;;;;6.80;3.80;;;-1.30;99.90;;;;;;5114190;28;20043;-64
2023/03/12 00:18:22;;;;;;;5.60;3.70;;;-1.30;99.90;;;;;;5112649;28;20510;-64
2023/03/12 00:20:54;;;;;;;6.03;3.55;;;-1.20;99.90;;;;;;5114176;28;20047;-65
2023/03/12 00:23:21;;;;;;;8.20;3.92;;;-1.20;99.90;;;;;;5114054;28;20506;-64
2023/03/12 00:25:48;;;;;;;6.75;3.47;;;-1.20;99.90;;;;;;5113119;28;20066;-64
2023/03/12 00:28:14;;;;;;;6.80;3.70;;;-1.30;99.90;;;;;;5114261;28;20050;-64
2023/03/12 00:30:43;;;;;;;6.50;3.58;;;-1.30;99.90;;;;;;5112976;28;20056;-64
2023/03/12 00:33:10;;;;;;;7.85;3.88;;;-1.30;99.90;;;;;;5113302;28;20135;-64
2023/03/12 00:35:38;;;;;;;10.07;4.00;;;-1.30;99.90;;;;;;5113738;28;20051;-64
2023/03/12 00:38:05;;;;;;;6.93;3.55;;;-1.30;99.90;;;;;;5113415;28;20093;-64
2023/03/12 00:40:32;;;;;;;8.25;4.10;;;-1.40;99.90;;;;;;5113645;28;20058;-64
2023/03/12 00:42:59;;;;;;;7.15;3.88;;;-1.40;99.90;;;;;;5112810;28;20397;-65
2023/03/12 00:45:26;;;;;;;6.50;3.38;;;-1.40;99.90;;;;;;5111833;28;20048;-64
2023/03/12 00:47:54;;;;;;;4.75;3.33;;;-1.40;99.90;;;;;;5112691;28;20043;-64
2023/03/12 00:50:21;;;;;;;7.00;3.30;;;-1.40;99.90;;;;;;5113794;27;20384;-65
2023/03/12 00:52:48;;;;;;;8.02;3.60;;;-1.40;99.90;;;;;;5111573;28;20056;-64
2023/03/12 00:55:15;;;;;;;6.88;3.45;;;-1.50;99.90;;;;;;5113723;28;20047;-64
2023/03/12 00:57:42;;;;;;;6.60;4.78;;;-1.50;99.90;;;;;;5113632;28;20052;-64
2023/03/12 01:00:11;;;;;;;8.18;4.40;;;-1.50;99.90;;;;;;5111942;28;20051;-65
2023/03/12 01:02:39;;;;;;;8.75;3.97;;;-1.50;99.90;;;;;;5110083;28;20070;-64
2023/03/12 01:05:10;;;;;;;10.27;4.28;;;-1.60;99.90;;;;;;5113086;28;20116;-64
2023/03/12 01:07:38;;;;;;;9.90;4.45;;;-1.60;99.90;;;;;;5112764;28;20047;-64
2023/03/12 01:10:06;;;;;;;6.60;4.75;;;-1.60;99.90;;;;;;5111245;28;20066;-64
2023/03/12 01:12:33;;;;;;;7.30;4.00;;;-1.60;99.90;;;;;;5111834;28;20112;-65
2023/03/12 01:15:00;;;;;;;6.00;3.83;;;-1.60;99.90;;;;;;5112754;28;20039;-65
2023/03/12 01:17:27;;;;;;;11.82;4.85;;;-1.70;99.90;;;;;;5111563;28;20052;-64
2023/03/12 01:19:54;;;;;;;8.63;4.63;;;-1.60;99.90;;;;;;5113071;28;20047;-65
2023/03/12 01:22:22;;;;;;;8.90;4.45;;;-1.70;99.90;;;;;;5112267;28;20568;-64
2023/03/12 01:24:49;;;;;;;7.18;4.45;;;-1.70;99.90;;;;;;5111937;28;20048;-64
2023/03/12 01:27:16;;;;;;;8.85;4.78;;;-1.70;99.90;;;;;;5112282;28;20089;-64
2023/03/12 01:29:43;;;;;;;8.38;4.82;;;-1.70;99.90;;;;;;5111314;28;20056;-64
2023/03/12 01:32:10;;;;;;;6.43;4.32;;;-1.70;99.90;;;;;;5112782;28;20053;-64
2023/03/12 01:34:37;;;;;;;7.28;4.80;;;-1.60;99.90;;;;;;5112150;28;20058;-64
2023/03/12 01:37:04;;;;;;;8.35;4.43;;;-1.60;99.90;;;;;;5111370;28;20043;-64
2023/03/12 01:39:32;;;;;;;11.13;5.57;;;-1.60;99.90;;;;;;5112950;28;20048;-65
2023/03/12 01:41:59;;;;;;;9.30;5.28;;;-1.60;99.90;;;;;;5111112;28;20541;-65
2023/03/12 01:44:26;;;;;;;7.75;5.43;;;-1.60;99.90;;;;;;5112568;28;20044;-64
2023/03/12 01:46:53;;;;;;;9.75;5.38;;;-1.60;99.90;;;;;;5112549;28;20048;-64
2023/03/12 01:49:24;;;;;;;9.35;4.97;;;-1.50;99.90;;;;;;5110947;28;20483;-64
2023/03/12 01:51:56;;;;;;;12.05;5.57;;;-1.50;99.90;;;;;;5112635;28;20055;-64
2023/03/12 01:54:27;;;;;;;8.63;5.38;;;-1.50;99.90;;;;;;5111620;28;20055;-64
2023/03/12 01:56:55;;;;;;;;;;;-1.40;99.90;;;;;;5110892;28;20047;-64
2023/03/12 01:59:25;;;;;;;12.48;5.10;;;-1.30;99.90;;;;;;5111591;28;19973;-64
2023/03/12 02:01:52;;;;;;;9.75;6.03;;;-1.20;99.90;;;;;;5112407;28;20104;-63
2023/03/12 02:04:22;;;;;;;7.38;5.60;;;-1.20;99.90;;;;;;5111840;28;20101;-65
2023/03/12 02:06:53;;;;;;;9.77;5.57;;;-1.10;99.90;;;;;;5109995;28;20046;-64
2023/03/12 02:09:21;;;;;;;9.93;5.80;;;-0.80;99.90;;;;;;5111829;28;20066;-64
2023/03/12 02:11:49;;;;;;;8.07;5.00;;;-0.90;99.90;;;;;;5111293;28;20044;-65
2023/03/12 02:14:17;;;;;;;9.48;5.53;;;-0.90;99.90;;;;;;5111385;28;20051;-64
2023/03/12 02:16:45;;;;;;;9.75;4.93;;;-0.90;99.90;;;;;;5110506;28;20109;-64
2023/03/12 02:19:21;;;;;;;8.52;5.07;;;-0.80;99.90;;;;;;5111203;28;20156;-65
2023/03/12 02:21:47;;;;;;;8.30;4.22;;;-0.80;99.90;;;;;;5110010;28;20063;-64
2023/03/12 02:24:22;;;;;;;9.82;5.45;;;-0.80;99.90;;;;;;5108454;28;20055;-64
2023/03/12 02:26:51;;;;;;;5.30;4.18;;;-0.70;99.90;;;;;;5108463;28;20051;-64
2023/03/12 02:29:18;;;;;;;6.47;4.47;;;-0.70;99.90;;;;;;5112414;28;20101;-64
2023/03/12 02:31:51;;;;;;;15.65;5.38;;;-0.60;99.90;;;;;;5110746;28;20051;-64
2023/03/12 02:34:18;;;;;;;8.10;4.25;;;-0.60;99.90;;;;;;5109507;28;20048;-64
2023/03/12 02:36:45;;;;;;;8.18;4.30;;;-0.50;99.90;;;;;;5111051;28;20043;-65
2023/03/12 02:39:12;;;;;;;10.40;4.85;;;-0.50;99.90;;;;;;5110247;28;20089;-65
2023/03/12 02:41:44;;;;;;;6.80;4.18;;;-0.50;99.90;;;;;;5112499;28;20047;-65
2023/03/12 02:44:16;;;;;;;6.78;4.30;;;-0.40;99.90;;;;;;5116141;28;20048;-64
2023/03/12 02:46:45;;;;;;;7.70;4.68;;;-0.40;99.90;;;;;;5115375;28;20096;-64
2023/03/12 02:49:13;;;;;;;7.32;4.50;;;-0.40;99.90;;;;;;5116080;28;20043;-64
2023/03/12 02:51:41;;;;;;;6.63;4.28;;;-0.40;99.90;;;;;;5115338;28;20044;-65
2023/03/12 02:54:09;;;;;;;8.65;4.55;;;-0.30;99.90;;;;;;5116150;28;20403;-64
2023/03/12 02:56:37;;;;;;;7.60;4.55;;;-0.10;99.90;;;;;;5113691;28;20557;-65
2023/03/12 02:59:04;;;;;;;7.07;4.20;;;-0.30;99.90;;;;;;5114238;28;20487;-63
2023/03/12 03:01:33;;;;;;;7.25;4.35;;;-0.30;99.90;;;;;;5113772;28;20043;-64
2023/03/12 03:04:01;;;;;;;8.38;4.47;;;-0.30;99.90;;;;;;5115348;28;20050;-65
2023/03/12 03:06:28;;;;;;;6.70;3.53;;;-0.20;99.90;;;;;;5115013;28;20487;-64
2023/03/12 03:08:55;;;;;;;6.65;4.47;;;-0.20;99.90;;;;;;5115568;28;20055;-65
2023/03/12 03:11:23;;;;;;;6.50;4.18;;;-0.10;99.90;;;;;;5114646;28;20461;-64
2023/03/12 03:13:50;;;;;;;12.80;4.82;;;-0.10;99.90;;;;;;5113865;28;20059;-65
2023/03/12 03:16:17;;;;;;;7.18;4.57;;;-0.10;99.90;;;;;;5114110;28;20043;-64
2023/03/12 03:18:45;;;;;;;8.35;4.13;;;-0.10;99.90;;;;;;5115310;28;20036;-65
2023/03/12 03:21:15;;;;;;;7.85;4.70;;;0.00;99.90;;;;;;5113582;28;20054;-65
2023/03/12 03:23:42;;;;;;;6.10;3.83;;;0.00;99.90;;;;;;5113677;28;20447;-64
2023/03/12 03:26:09;;;;;;;6.35;4.30;;;0.00;99.90;;;;;;5115013;28;20096;-64
2023/03/12 03:28:36;;;;;;;7.30;3.65;;;0.00;99.90;;;;;;5113548;28;20048;-64
2023/03/12 03:31:03;;;;;;;9.00;4.00;;;0.10;99.90;;;;;;5115090;28;20055;-64
2023/03/12 03:33:33;;;;;;;8.82;4.57;;;0.10;99.90;;;;;;5115021;28;20040;-65
2023/03/12 03:36:02;;;;;;;7.78;4.90;;;0.10;99.90;;;;;;5112371;28;20035;-64
2023/03/12 03:38:30;;;;;;;6.82;3.95;;;0.10;99.90;;;;;;5113828;28;20058;-64
2023/03/12 03:40:57;;;;;;;6.32;3.58;;;0.20;99.90;;;;;;5114479;28;20066;-65
2023/03/12 03:43:24;;;;;;;6.30;4.03;;;0.20;99.90;;;;;;5113644;28;20089;-65
2023/03/12 03:45:57;;;;;;;7.40;4.00;;;0.20;99.90;;;;;;5114480;28;20541;-64
2023/03/12 03:48:24;;;;;;;6.88;3.90;;;0.20;99.90;;;;;;5114315;28;20048;-65
2023/03/12 03:50:51;;;;;;;7.20;3.75;;;0.20;99.90;;;;;;5111814;28;20096;-65
2023/03/12 03:53:20;;;;;;;9.27;4.05;;;0.30;99.90;;;;;;5113396;28;20416;-65
2023/03/12 03:55:47;;;;;;;7.07;4.10;;;0.30;99.90;;;;;;5114063;28;20040;-65
2023/03/12 03:58:14;;;;;;;7.82;3.42;;;0.30;99.90;;;;;;5114585;27;20047;-64
2023/03/12 04:00:43;;;;;;;8.20;3.58;;;0.30;99.90;;;;;;5114461;28;20510;-64
2023/03/12 04:03:10;;;;;;;7.47;3.22;;;0.30;99.90;;;;;;5112965;28;20484;-65
2023/03/12 04:05:37;;;;;;;5.63;3.72;;;0.40;99.90;;;;;;5114044;28;20445;-65
2023/03/12 04:08:04;;;;;;;7.75;3.55;;;0.40;99.90;;;;;;5114513;28;20044;-64
2023/03/12 04:10:33;;;;;;;6.78;3.72;;;0.40;99.90;;;;;;5113773;28;20039;-64
2023/03/12 04:12:59;;;;;;;4.60;3.20;;;0.40;99.90;;;;;;5113197;28;20453;-65
2023/03/12 04:15:26;;;;;;;6.72;3.88;;;0.50;99.90;;;;;;5114347;28;20043;-65
2023/03/12 04:17:53;;;;;;;5.75;3.33;;;0.50;99.90;;;;;;5113901;28;20043;-65
2023/03/12 04:20:20;;;;;;;5.32;3.20;;;0.50;99.90;;;;;;5114305;28;20124;-65
2023/03/12 04:22:47;;;;;;;7.97;3.88;;;0.50;99.90;;;;;;5114318;28;20445;-65
2023/03/12 04:25:14;;;;;;;8.43;3.53;;;0.50;99.90;;;;;;5113374;28;20035;-64
2023/03/12 04:27:42;;;;;;;6.13;3.80;;;0.60;99.90;;;;;;5112625;28;20462;-64
2023/03/12 04:30:10;;;;;;;6.82;3.38;;;0.60;99.90;;;;;;5113499;28;20093;-65
2023/03/12 04:32:37;;;;;;;8.25;4.47;;;0.60;99.90;;;;;;5113094;28;20167;-64
2023/03/12 04:35:05;;;;;;;6.60;3.53;;;0.60;99.90;;;;;;5113958;28;20043;-64
2023/03/12 04:37:33;;;;;;;7.22;3.50;;;0.60;99.90;;;;;;5113158;28;20493;-65
2023/03/12 04:40:02;;;;;;;6.28;3.47;;;0.60;99.90;;;;;;5113930;27;20534;-64
2023/03/12 04:42:29;;;;;;;6.07;3.67;;;0.80;99.90;;;;;;5112783;28;20059;-64
2023/03/12 04:44:58;;;;;;;6.90;3.85;;;0.60;99.90;;;;;;5113289;27;20079;-64
2023/03/12 04:47:25;;;;;;;6.40;4.03;;;0.60;99.90;;;;;;5112191;28;20043;-64
2023/03/12 04:49:52;;;;;;;5.38;3.50;;;0.60;99.90;;;;;;5113773;28;20051;-65
2023/03/12 04:52:19;;;;;;;5.35;3.60;;;0.60;99.90;;;;;;5111775;28;20047;-65
2023/03/12 04:54:45;;;;;;;8.73;3.60;;;0.60;99.90;;;;;;5112599;28;20112;-65
2023/03/12 04:57:12;;;;;;;11.55;3.80;;;0.60;99.90;;;;;;5112328;28;20055;-64
2023/03/12 04:59:39;;;;;;;4.70;3.13;;;0.60;99.90;;;;;;5111886;28;20380;-65
2023/03/12 05:02:07;;;;;;;6.68;4.25;;;0.60;99.90;;;;;;5112238;28;20043;-64
2023/03/12 05:04:34;;;;;;;5.55;3.58;;;0.60;99.90;;;;;;5111472;28;20116;-64
2023/03/12 05:07:01;;;;;;;4.28;3.03;;;0.60;99.90;;;;;;5111456;28;20051;-65
2023/03/12 05:09:28;;;;;;;5.75;3.90;;;0.70;99.90;;;;;;5113495;28;20043;-65
2023/03/12 05:11:55;;;;;;;6.18;3.63;;;0.70;99.90;;;;;;5113463;28;20044;-64
2023/03/12 05:14:22;;;;;;;7.45;3.53;;;0.70;99.90;;;;;;5112683;28;20048;-64
2023/03/12 05:16:49;;;;;;;8.80;3.58;;;0.80;99.90;;;;;;5113108;28;20044;-65
2023/03/12 05:19:18;;;;;;;7.07;3.78;;;0.80;99.90;;;;;;5111626;28;20068;-64
2023/03/12 05:21:45;;;;;;;7.20;3.65;;;0.90;99.90;;;;;;5113023;28;20544;-64
2023/03/12 05:24:12;;;;;;;5.85;3.40;;;0.80;99.90;;;;;;5113293;28;20422;-64
2023/03/12 05:26:40;;;;;;;6.63;3.90;;;0.80;99.90;;;;;;5112084;28;20414;-64
2023/03/12 05:29:07;;;;;;;8.95;3.97;;;0.80;99.90;;;;;;5112007;28;20077;-65
2023/03/12 05:31:34;;;;;;;7.07;3.65;;;0.80;99.90;;;;;;5112978;28;20130;-64
2023/03/12 05:34:01;;;;;;;6.95;3.53;;;0.90;99.90;;;;;;5112337;28;20101;-64
2023/03/12 05:36:29;;;;;;;9.40;4.25;;;1.10;99.90;;;;;;5110352;28;20393;-65
2023/03/12 05:38:56;;;;;;;6.78;3.55;;;0.90;99.90;;;;;;5112663;28;20556;-64
2023/03/12 05:41:25;;;;;;;6.07;3.42;;;0.90;99.90;;;;;;5110879;28;20050;-64
2023/03/12 05:43:54;;;;;;;7.63;3.50;;;0.90;99.90;;;;;;5112689;28;20043;-64
2023/03/12 05:46:22;;;;;;;8.15;3.97;;;0.90;99.90;;;;;;5112311;28;20043;-65
2023/03/12 05:48:49;;;;;;;4.40;3.58;;;0.90;99.90;;;;;;5110964;28;20445;-64
2023/03/12 05:51:16;;;;;;;6.00;4.00;;;0.90;99.90;;;;;;5112601;28;20426;-64
2023/03/12 05:53:44;;;;;;;7.35;3.80;;;0.90;99.90;;;;;;5111470;28;20104;-64
2023/03/12 05:56:14;;;;;;;8.43;3.35;;;0.90;99.90;;;;;;5111159;28;20047;-64
2023/03/12 05:58:41;;;;;;;8.82;4.32;;;0.90;99.90;;;;;;5112374;28;20055;-64
2023/03/12 06:01:12;;;;;;;7.80;3.80;;;1.00;99.90;;;;;;5112340;28;20047;-64
2023/03/12 06:03:39;;;;;;;6.65;3.92;;;1.00;99.90;;;;;;5111625;28;20055;-64
2023/03/12 06:06:06;;;;;;;8.25;3.55;;;1.00;99.90;;;;;;5112309;28;20067;-65
2023/03/12 06:08:33;;;;;;;6.55;4.47;;;1.00;99.90;;;;;;5111817;28;20491;-65
2023/03/12 06:11:01;;;;;;;7.60;4.20;;;1.00;99.90;;;;;;5112378;28;20047;-64
2023/03/12 06:13:28;;;;;;;7.13;3.78;;;1.10;99.90;;;;;;5112316;28;20051;-64
2023/03/12 06:16:01;;;;;;;6.60;3.60;;;1.10;99.90;;;;;;5112609;28;20052;-65
2023/03/12 06:18:27;;;;;;;7.57;3.92;;;1.10;99.90;;;;;;5116764;28;20092;-64
2023/03/12 06:20:54;;;;;;;8.48;3.60;;;1.10;99.90;;;;;;5116353;28;20069;-64
2023/03/12 06:23:21;;;;;;;7.68;4.13;;;1.20;99.90;;;;;;5116121;28;20410;-64
2023/03/12 06:25:48;;;;;;;5.85;3.95;;;1.20;99.90;;;;;;5116162;28;20051;-64
2023/03/12 06:28:16;;;;;;;7.25;4.35;;;1.20;99.90;;;;;;5116103;28;20412;-64
2023/03/12 06:30:43;;;;;;;10.07;4.40;;;1.20;99.90;;;;;;5114584;28;20497;-64
2023/03/12 06:33:10;;;;;;;6.88;3.90;;;1.20;99.90;;;;;;5116150;28;20043;-64
2023/03/12 06:35:37;;;;;;;7.57;4.10;;;1.30;99.90;;;;;;5116019;28;20098;-64
2023/03/12 06:38:04;;;;;;;7.53;4.00;;;1.30;99.90;;;;;;5115477;28;20044;-64
2023/03/12 06:40:31;;;;;;;9.50;4.32;;;1.30;99.90;;;;;;5116009;28;20048;-64
2023/03/12 06:42:58;;;;;;;8.13;4.30;;;1.40;99.90;;;;;;5114616;28;20569;-65
2023/03/12 06:45:26;;;;;;;9.43;4.20;;;1.40;99.90;;;;;;5115461;28;20372;-64
2023/03/12 06:47:53;;;;;;;9.00;4.50;;;1.40;99.90;;;;;;5115893;28;20119;-64
2023/03/12 06:50:20;;;;;;;8.38;4.65;;;1.40;99.90;;;;;;5115872;28;20516;-65
2023/03/12 06:52:47;;;;;;;6.97;4.13;;;1.40;99.90;;;;;;5115359;28;20097;-65
2023/03/12 06:55:14;;;;;;;14.57;4.50;;;1.40;99.90;;;;;;5115688;28;20384;-64
2023/03/12 06:57:41;;;;;;;6.50;4.10;;;1.50;99.90;;;;;;5113860;28;20050;-64
2023/03/12 07:00:09;;;;;;;6.68;4.18;;;1.50;99.90;;;;;;5114613;28;20820;-64
2023/03/12 07:02:37;;;;;;;6.95;3.97;;;1.60;99.90;;;;;;5115684;28;20075;-64
2023/03/12 07:05:05;;;;;;;7.93;4.50;;;1.60;99.90;;;;;;5114897;28;20043;-65
2023/03/12 07:07:32;;;;;;;8.32;4.20;;;1.60;99.90;;;;;;5113958;28;20052;-64
2023/03/12 07:09:59;;;;;;;8.50;4.22;;;1.60;99.90;;;;;;5114329;28;20066;-64
2023/03/12 07:12:26;;;;;;;8.05;4.68;;;1.80;99.90;;;;;;5113415;28;20047;-64
2023/03/12 07:14:53;;;;;;;8.77;4.53;;;1.70;99.90;;;;;;5114092;28;20160;-65
2023/03/12 07:17:22;;;;;;;7.28;4.57;;;1.70;99.90;;;;;;5113775;28;20043;-65
2023/03/12 07:19:50;;;;;;;10.95;4.78;;;1.60;99.90;;;;;;5114680;28;20040;-65
2023/03/12 07:22:17;;;;;;;7.88;4.90;;;1.80;99.90;;;;;;5115243;28;20442;-64
2023/03/12 07:24:44;;;;;;;7.68;5.18;;;1.60;99.90;;;;;;5115168;28;20117;-64
2023/03/12 07:27:10;;;;;;;9.23;5.75;;;1.50;99.90;;;;;;5113882;28;20097;-63
2023/03/12 07:29:37;;;;;;;10.27;7.00;;;1.50;99.90;;;;;;5115214;28;20043;-65
2023/03/12 07:32:05;;;;;;;8.10;5.22;;;1.50;99.90;;;;;;5112121;28;20571;-64
2023/03/12 07:34:32;;;;;;;10.35;5.90;;;1.50;99.90;;;;;;5110734;28;20545;-62
2023/03/12 07:37:00;;;;;;;11.88;6.30;;;1.60;99.90;;;;;;5112741;28;20070;-63
2023/03/12 07:39:27;;;;;;;13.35;6.60;;;1.50;99.90;;;;;;5113957;28;20044;-64
2023/03/12 07:41:54;;;;;;;8.63;5.75;;;1.50;99.90;;;;;;5111597;28;20051;-63
2023/03/12 07:44:21;;;;;;;8.48;6.00;;;1.40;99.90;;;;;;5113910;28;20446;-64
2023/03/12 07:46:48;;;;;;;11.48;6.40;;;1.40;99.90;;;;;;5112112;28;20062;-63
2023/03/12 07:49:15;;;;;;;14.68;7.00;;;1.40;99.90;;;;;;5113517;28;20449;-63
2023/03/12 07:51:42;;;;;;;11.23;6.60;;;1.30;99.90;;;;;;5112243;28;20051;-63
2023/03/12 07:54:10;;;;;;;9.35;6.88;;;1.30;99.90;;;;;;5111615;28;20060;-64
2023/03/12 07:56:37;;;;;;;13.00;7.07;;;1.20;99.90;;;;;;5113386;28;20101;-63
2023/03/12 07:59:04;;;;;;;12.30;6.82;;;1.20;99.90;;;;;;5112644;28;20441;-64
2023/03/12 08:01:31;;;;;;;13.02;6.78;;;1.20;99.90;;;;;;5112898;28;20048;-64
2023/03/12 08:03:58;;;;;;;11.75;7.18;;;1.20;99.90;;;;;;5113275;28;20515;-63
2023/03/12 08:06:26;;;;;;;9.70;7.07;;;1.10;99.90;;;;;;5113101;28;20054;-64
2023/03/12 08:08:52;;;;;;;14.73;7.63;;;1.20;99.90;;;;;;5111709;28;20093;-64
2023/03/12 08:11:21;;;;;;;11.82;7.35;;;1.10;99.90;;;;;;5113502;28;20056;-64
2023/03/12 08:13:48;;;;;;;10.98;7.28;;;1.10;99.90;;;;;;5113298;28;20044;-64
2023/03/12 08:16:15;;;;;;;11.93;8.32;;;1.10;99.90;;;;;;5112690;28;20044;-64
2023/03/12 08:18:42;;;;;;;11.07;7.78;;;1.10;99.90;;;;;;5112836;28;20495;-64
2023/03/12 08:21:09;;;;;;;10.35;7.72;;;1.00;99.90;;;;;;5111732;28;20130;-64
2023/03/12 08:23:36;;;;;;;11.25;7.70;;;1.10;99.90;;;;;;5111574;28;20094;-64
2023/03/12 08:26:03;;;;;;;12.07;8.40;;;1.10;99.90;;;;;;5112963;28;20105;-63
2023/03/12 08:28:32;;;;;;;12.02;8.00;;;1.00;99.90;;;;;;5112607;28;20043;-63
2023/03/12 08:31:01;;;;;;;13.75;8.05;;;1.00;99.90;;;;;;5112482;28;20453;-64
2023/03/12 08:33:28;;;;;;;11.52;8.05;;;1.10;99.90;;;;;;5112981;28;20047;-63
2023/03/12 08:35:55;;;;;;;9.75;7.72;;;1.20;99.90;;;;;;5110451;28;20089;-64
2023/03/12 08:38:22;;;;;;;14.55;7.60;;;1.30;99.90;;;;;;5111398;28;20055;-63
2023/03/12 08:40:55;;;;;;;11.88;7.22;;;1.30;99.90;;;;;;5112222;28;20055;-63
2023/03/12 08:43:22;;;;;;;13.40;8.30;;;1.40;99.90;;;;;;5109789;28;20082;-64
2023/03/12 08:45:55;;;;;;;10.57;7.60;;;1.40;99.90;;;;;;5112384;28;20175;-65
2023/03/12 08:48:22;;;;;;;9.93;6.75;;;1.50;99.90;;;;;;5111434;28;20055;-63
2023/03/12 08:50:48;;;;;;;8.95;7.53;;;1.40;99.90;;;;;;5112083;28;20720;-63
2023/03/12 08:53:16;;;;;;;15.27;7.03;;;1.50;99.90;;;;;;5112579;28;20096;-63
2023/03/12 08:55:44;;;;;;;11.85;6.85;;;1.50;99.90;;;;;;5112291;28;20046;-62
2023/03/12 08:58:11;;;;;;;10.32;7.40;;;1.60;99.90;;;;;;5110815;28;20568;-64
2023/03/12 09:00:38;;;;;;;15.38;7.30;;;1.60;99.90;;;;;;5112494;28;20105;-64
2023/03/12 09:03:06;;;;;;;13.20;7.05;;;1.60;99.90;;;;;;5110954;28;20058;-63
2023/03/12 09:05:33;;;;;;;8.15;6.68;;;1.70;99.90;;;;;;5111752;28;20062;-63
2023/03/12 09:08:00;;;;;;;10.05;7.32;;;1.70;99.90;;;;;;5111985;28;20499;-63
2023/03/12 09:10:27;;;;;;;8.52;6.70;;;1.70;99.90;;;;;;5112528;28;20051;-63
2023/03/12 09:12:54;;;;;;;9.90;6.85;;;1.60;99.90;;;;;;5110054;28;20058;-63
2023/03/12 09:15:20;;;;;;;11.27;7.40;;;1.60;99.90;;;;;;5112242;28;20051;-62
2023/03/12 09:17:47;;;;;;;12.55;7.15;;;1.60;99.90;;;;;;5110850;28;20487;-63
2023/03/12 09:20:16;;;;;;;8.70;6.32;;;1.60;99.90;;;;;;5111226;28;20056;-64
2023/03/12 09:22:43;;;;;;;10.15;7.28;;;1.60;99.90;;;;;;5111797;28;20395;-64
2023/03/12 09:25:11;;;;;;;10.50;6.80;;;1.60;99.90;;;;;;5111073;28;20112;-64
2023/03/12 09:27:39;;;;;;;11.30;7.75;;;1.50;99.90;;;;;;5111067;28;20431;-64
2023/03/12 09:30:08;;;;;;;10.60;6.97;;;1.50;99.90;;;;;;5111926;28;20062;-63
2023/03/12 09:32:35;;;;;;;12.50;7.57;;;1.50;99.90;;;;;;5109975;28;20415;-63
2023/03/12 09:35:02;;;;;;;11.05;7.55;;;1.50;99.90;;;;;;5111992;28;20056;-63
2023/03/12 09:37:31;;;;;;;12.65;8.05;;;1.50;99.90;;;;;;5111717;28;20062;-62
2023/03/12 09:39:58;;;;;;;11.63;7.03;;;1.50;99.90;;;;;;5110947;28;20085;-63
2023/03/12 09:42:27;;;;;;;13.43;7.60;;;1.50;99.90;;;;;;5111962;28;20043;-63
2023/03/12 09:44:57;;;;;;;11.48;8.13;;;1.50;99.90;;;;;;5111957;28;20453;-64
2023/03/12 09:47:29;;;;;;;9.32;7.30;;;1.50;99.90;;;;;;5110844;28;20044;-64
2023/03/12 09:50:02;;;;;;;9.15;7.43;;;1.50;99.90;;;;;;5110361;28;20499;-63
2023/03/12 09:52:33;;;;;;;11.32;7.65;;;1.50;99.90;;;;;;5111478;28;20093;-64
2023/03/12 09:55:06;;;;;;;12.98;7.53;;;1.50;99.90;;;;;;5111508;28;20048;-64
2023/03/12 09:57:33;;;;;;;13.05;7.63;;;1.50;99.90;;;;;;5111381;28;20066;-63
2023/03/12 10:00:00;;;;;;;10.30;6.72;;;1.60;99.90;;;;;;5110403;28;20048;-63
2023/03/12 10:02:53;;;;;;;13.38;7.22;;;1.50;99.90;;;;;;5109816;28;20379;-64
2023/03/12 10:05:26;;;;;;;13.43;7.57;;;1.50;99.90;;;;;;5111125;28;20067;-64
2023/03/12 10:08:00;;;;;;;10.57;7.13;;;1.60;99.90;;;;;;5110499;28;20039;-64
2023/03/12 10:10:44;;;;;;;15.05;7.95;;;1.60;99.90;;;;;;5111626;28;20388;-63
2023/03/12 10:13:24;;;;;;;11.20;7.13;;;1.70;99.90;;;;;;5110772;28;20096;-63
2023/03/12 10:16:05;;;;;;;7.78;6.40;;;1.70;99.90;;;;;;5110628;28;20503;-63
2023/03/12 10:18:44;;;;;;;9.23;6.78;;;1.70;99.90;;;;;;5111204;28;20048;-65
2023/03/12 10:21:17;;;;;;;10.38;6.85;;;1.80;99.90;;;;;;5110488;28;20388;-63
2023/03/12 10:24:07;;;;;;;10.57;6.32;;;1.80;99.90;;;;;;5110560;28;20183;-63
2023/03/12 10:26:39;;;;;;;8.77;6.80;;;1.80;99.90;;;;;;5109676;28;20116;-63
2023/03/12 10:29:13;;;;;;;11.13;7.10;;;1.90;99.90;;;;;;5110804;28;20053;-63
2023/03/12 10:31:49;;;;;;;8.68;6.90;;;1.90;99.90;;;;;;5108477;28;20063;-63
2023/03/12 10:34:21;;;;;;;12.45;7.88;;;2.00;99.90;;;;;;5108601;28;20402;-63
2023/03/12 10:36:47;;;;;;;8.25;7.28;;;1.90;99.90;;;;;;5109454;28;20083;-63
2023/03/12 10:39:18;;;;;;;9.35;7.30;;;2.00;99.90;;;;;;5110030;28;20048;-63
2023/03/12 10:41:47;;;;;;;10.73;7.45;;;2.00;99.90;;;;;;5109923;28;20047;-63
2023/03/12 10:44:19;;;;;;;9.73;7.47;;;2.00;99.90;;;;;;5110699;28;20416;-62
2023/03/12 10:46:56;;;;;;;10.13;7.38;;;2.00;99.90;;;;;;5109822;28;20085;-63
2023/03/12 10:49:25;;;;;;;9.32;7.53;;;2.00;99.90;;;;;;5110456;28;20051;-63
2023/03/12 10:51:58;;;;;;;10.45;7.68;;;2.00;99.90;;;;;;5108975;28;20051;-63
2023/03/12 10:54:31;;;;;;;10.43;8.20;;;2.10;99.90;;;;;;5111236;28;20052;-63
2023/03/12 10:56:58;;;;;;;12.50;8.02;;;2.10;99.90;;;;;;5109483;28;20066;-64
2023/03/12 10:59:28;;;;;;;11.25;8.05;;;2.10;99.90;;;;;;5107764;28;20044;-64
2023/03/12 11:01:55;;;;;;;10.13;8.07;;;2.20;99.90;;;;;;5110333;28;20096;-63
2023/03/12 11:04:26;;;;;;;10.07;8.05;;;2.20;99.90;;;;;;5114440;28;20043;-63
2023/03/12 11:07:19;;;;;;;11.05;8.30;;;2.20;99.90;;;;;;5113483;28;20043;-63
2023/03/12 11:10:12;;;;;;;10.93;7.75;;;2.30;99.90;;;;;;5113299;28;20047;-63
2023/03/12 11:12:39;;;;;;;10.38;7.90;;;2.30;99.90;;;;;;5111315;28;20064;-63
2023/03/12 11:15:20;;;;;;;10.52;7.45;;;2.40;99.90;;;;;;5113792;28;20052;-62
2023/03/12 11:17:47;;;;;;;10.10;8.27;;;2.30;99.90;;;;;;5111952;28;20123;-63
2023/03/12 11:20:26;;;;;;;12.88;8.63;;;2.40;99.90;;;;;;5113992;28;20048;-63
2023/03/12 11:22:53;;;;;;;13.63;8.50;;;2.50;99.90;;;;;;5113338;28;20399;-62
2023/03/12 11:25:24;;;;;;;11.45;8.23;;;2.60;99.90;;;;;;5113962;28;20051;-63
2023/03/12 11:27:54;;;;;;;13.85;9.15;;;2.60;99.90;;;;;;5112988;28;20058;-63
2023/03/12 11:30:24;;;;;;;11.50;8.63;;;2.70;99.90;;;;;;5114349;28;20453;-63
2023/03/12 11:32:52;;;;;;;11.85;9.00;;;2.70;99.90;;;;;;5112647;28;20131;-63
2023/03/12 11:35:25;;;;;;;15.88;8.63;;;2.80;99.90;;;;;;5113241;28;20060;-63
2023/03/12 11:38:00;;;;;;;14.20;9.43;;;2.90;99.90;;;;;;5113901;28;20126;-63
2023/03/12 11:40:52;;;;;;;10.98;8.43;;;3.00;99.90;;;;;;5113744;28;20055;-62
2023/03/12 11:43:42;;;;;;;12.55;8.63;;;3.10;99.90;;;;;;5113362;28;20442;-63
2023/03/12 11:46:22;;;;;;;15.18;9.55;;;3.20;99.90;;;;;;5112235;28;20085;-63
2023/03/12 11:49:03;;;;;;;13.77;9.30;;;3.20;99.90;;;;;;5113007;28;20048;-64
2023/03/12 11:51:40;;;;;;;11.82;9.02;;;3.40;99.90;;;;;;5112490;28;20055;-64
2023/03/12 11:54:38;;;;;;;13.43;9.98;;;3.50;99.90;;;;;;5112014;28;20383;-63
2023/03/12 11:57:13;;;;;;;12.77;9.50;;;3.50;99.90;;;;;;5098565;28;20048;-63
2023/03/12 11:59:53;;;;;;;14.95;9.55;;;3.60;99.90;;;;;;5111486;28;20491;-63
2023/03/12 12:02:41;;;;;;;13.07;9.25;;;3.70;99.90;;;;;;5111011;28;20051;-63
2023/03/12 12:05:34;;;;;;;11.73;8.60;;;3.80;99.90;;;;;;5111608;28;20059;-64
2023/03/12 12:08:16;;;;;;;17.63;9.35;;;4.00;99.90;;;;;;5103721;28;20407;-64
2023/03/12 12:10:53;;;;;;;13.07;9.00;;;4.10;99.90;;;;;;5113066;28;20051;-64
2023/03/12 12:13:28;;;;;;;13.10;8.20;;;4.20;99.90;;;;;;5145750;27;20056;-64
2023/03/12 12:16:05;;;;;;;12.73;9.30;;;4.30;99.90;;;;;;5110865;28;20054;-64
2023/03/12 12:18:47;;;;;;;17.17;9.07;;;4.40;99.90;;;;;;5112413;28;20043;-64
2023/03/12 12:21:30;;;;;;;13.00;9.07;;;4.50;99.90;;;;;;5112310;28;20047;-63
2023/03/12 12:24:05;;;;;;;14.07;9.98;;;4.60;99.90;;;;;;5110770;28;20051;-64
2023/03/12 12:26:41;;;;;;;12.30;8.77;;;4.80;99.90;;;;;;5111895;28;20122;-63
2023/03/12 12:29:26;;;;;;;12.60;8.52;;;4.90;99.90;;;;;;5111530;28;20040;-64
2023/03/12 12:31:56;;;;;;;12.50;9.13;;;5.10;99.90;;;;;;5113392;28;20059;-64
2023/03/12 12:34:52;;;;;;;12.37;8.50;;;5.20;99.90;;;;;;5112404;28;20411;-63
2023/03/12 12:37:43;;;;;;;13.43;9.57;;;5.30;99.90;;;;;;5111791;28;20054;-63
2023/03/12 12:40:19;;;;;;;13.68;8.88;;;5.50;99.90;;;;;;5112291;28;20449;-63
2023/03/12 12:42:58;;;;;;;11.18;9.23;;;5.60;99.90;;;;;;5111689;28;20056;-63
2023/03/12 12:45:28;;;;;;;12.43;8.57;;;5.70;99.90;;;;;;5112282;28;20051;-63
2023/03/12 12:48:00;;;;;;;13.95;9.32;;;5.80;99.90;;;;;;5111891;28;20108;-63
2023/03/12 12:50:32;;;;;;;13.65;9.60;;;6.00;99.90;;;;;;5112422;28;20487;-64
2023/03/12 12:53:06;;;;;;;12.77;8.30;;;6.20;99.90;;;;;;5110760;28;20526;-63
2023/03/12 12:55:37;;;;;;;13.25;8.90;;;6.30;99.90;;;;;;5113033;28;20047;-63
2023/03/12 12:58:11;;;;;;;16.63;9.13;;;6.40;99.90;;;;;;5108958;28;20092;-64
2023/03/12 13:00:45;;;;;;;13.18;8.65;;;6.60;99.90;;;;;;5109341;28;20055;-64
2023/03/12 13:03:16;;;;;;;14.30;9.20;;;6.60;99.90;;;;;;5109718;28;20044;-64